Terminal Aerodrome Forecast
Issued by NWS Tampa Bay Area, FL

Home | Current Version | Previous Version | Text Only | Print | Product List | Glossary On
Versions: 1 2 3 4 5 6 7 8 9 10 11 12 13
866
FTUS42 KTBW 282341
TAFSRQ
TAF
KSRQ 282341Z 2900/2924 19006KT P6SM FEW050 FEW250
     FM290300 11006KT P6SM FEW030 FEW250
     FM291300 14013G22KT P6SM FEW030 SCT250
     FM291900 19014G20KT P6SM FEW050 SCT250=

USA.gov is the U.S. government's official web portal to all federal, state and local government web resources and services.